ADDS TAF Board (Experimental) INFO Settings
IDs: Format: Expanded Condensed

KIAH - Houston/Bush Intl, TX, US

Issued at 2052 UTC 25 Aug 2016
Updated at 2155 UTC 25 Aug 2016
Time2053Z 25/22Z 25/23Z 26/00Z 26/01Z 26/02Z 26/03Z 26/04Z 26/05Z 26/06Z 26/07Z 26/08Z 26/09Z 26/10Z
Type OBS PRVL PRVL PRVL PRVL PRVL PRVL PRVL PRVL PRVL PRVL PRVL PRVL PRVL
VIS 10 >6 >6 >6 >6 >6 >6 >6 >6 >6 >6 >6 >6 >6
CIG 160 250 250 250 250 250 250 250 250 250 250 250 250 250
Cover BKN BKN BKN BKN BKN BKN BKN BKN BKN BKN BKN BKN BKN BKN
FltCat VFR VFR VFR VFR VFR VFR VFR VFR VFR VFR VFR VFR VFR VFR
WX -- VCTS VCTS -- -- -- -- -- -- -- -- -- -- --
WDir 200 VRB VRB 90 90 90 90 90 90 90 90 90 VRB VRB
WSpd 3 3 3 6 6 6 6 6 6 6 6 6 0 0
WGst -- -- -- -- -- -- -- -- -- -- -- -- -- --
R08/26
XWnd -3 VRB VRB 0 0 0 0 0 0 0 0 0 VRB VRB
HWnd -1 VRB VRB 6 6 6 6 6 6 6 6 6 VRB VRB
R09/27
XWnd -3 VRB VRB 0 0 0 0 0 0 0 0 0 VRB VRB
HWnd -1 VRB VRB 6 6 6 6 6 6 6 6 6 VRB VRB
R15/33
XWnd -2 VRB VRB 5 5 5 5 5 5 5 5 5 VRB VRB
HWnd 2 VRB VRB 3 3 3 3 3 3 3 3 3 VRB VRB

Raw TAF
KIAH 252052Z 2521/2624 VRB03KT P6SM VCTS SCT022CB BKN250
  FM260000 09006KT P6SM FEW060 BKN250
  FM260900 00000KT P6SM FEW020 BKN250
  FM261300 07005KT P6SM VCSH SCT025 BKN150
  FM261800 09005KT P6SM VCTS BKN035CB


Raw METAR
KIAH 252053Z 20003KT 10SM FEW033 SCT110 BKN160 BKN250 26/23 A3000 RMK AO2 RAE23 TSE09 SLP157 CB DSNT N S W VCSH SW P0002 60042 T02610233 58021
KIAH 252009Z 10006KT 7SM -RA FEW033 BKN110 BKN250 24/23 A3003 RMK AO2 TSE09 PRESFR CB DSNT SE-SW TS DSIPTD P0002 T02440233
KIAH 251953Z 09008KT 4SM R27/6000VP6000FT -TSRA BR SCT033CB BKN085 OVC250 24/23 A3005 RMK AO2 SLP176 VIS S-NW 7 FRQ LTGCCCG NE-SE TS NE-SE MOVG NW P0038 T02390233
KIAH 251907Z 36013KT 4SM R27/6000VP6000FT +TSRA BKN033CB BKN075 OVC250 25/22 A3007 RMK AO2 VIS SE AND NW 1 1/2 FRQ LTGCCCG ALQDS TS ALQDS MOVG NW P0009 T02500222
KIAH 251853Z 29009KT 7SM TSRA BKN033CB BKN075 OVC250 27/23 A3006 RMK AO2 RAB12 SLP180 FRQ LTGCCCG S-W-NE TS S-W-NE MOVG NW P0002 T02720228
KIAH 251838Z 27012KT 7SM -TSRA BKN033CB OVC250 27/22 A3006 RMK AO2 RAB12 FRQ LTGCCCG W-NE TS W-NE MOVG NW P0000 T02720222

METAR Board
Radar Display
Forecast Discussion

TAF Board Legend

Potential Impact
Threat None Slight Moderate High
Visibility (sm) ≥5.1 5.1>X≥3 3>X≥1 <1
Ceiling (100 ft) ≥30.1 30.1>X≥10 10>X≥5 <5
Wind Speed (kt) <10 10≤X<20 20≤X<30 ≥30
Wind Gust (kt) <15 15≤X<25 25≤X<35 ≥35
Weather No Wx Reported VCTS,-TS,-FZRA,SN TS,FZRA +TS,+FZRA,+SN